createdAt,value
2017-08-10T00:02:03.525Z,6.50
2017-08-10T00:04:31.114Z,6.27
2017-08-10T00:06:58.697Z,6.87
2017-08-10T00:09:26.239Z,7.60
2017-08-10T00:11:54.259Z,6.30
2017-08-10T00:14:21.820Z,6.10
2017-08-10T00:16:49.378Z,6.07
2017-08-10T00:19:16.938Z,6.20
2017-08-10T00:21:44.511Z,6.10
2017-08-10T00:24:12.820Z,5.97
2017-08-10T00:26:40.363Z,6.20
2017-08-10T00:29:14.033Z,6.73
2017-08-10T00:31:41.611Z,6.43
2017-08-10T00:34:09.194Z,6.80
2017-08-10T00:36:36.783Z,7.77
2017-08-10T00:39:04.324Z,7.87
2017-08-10T00:41:31.897Z,6.83
2017-08-10T00:43:59.436Z,7.00
2017-08-10T00:46:27.007Z,6.97
2017-08-10T00:48:54.573Z,6.63
2017-08-10T00:51:22.175Z,6.00
2017-08-10T00:53:49.725Z,7.67
2017-08-10T00:56:17.280Z,6.20
2017-08-10T00:58:44.847Z,6.80
2017-08-10T01:01:12.383Z,6.30
2017-08-10T01:03:40.310Z,6.90
2017-08-10T01:06:07.829Z,6.60
2017-08-10T01:08:35.367Z,6.20
2017-08-10T01:11:02.932Z,7.37
2017-08-10T01:13:30.473Z,6.77
2017-08-10T01:15:58.014Z,6.63
2017-08-10T01:18:25.562Z,5.90
2017-08-10T01:20:53.113Z,7.07
2017-08-10T01:23:20.661Z,5.70
2017-08-10T01:25:48.980Z,5.93
2017-08-10T01:28:16.540Z,6.23
2017-08-10T01:30:44.066Z,5.20
2017-08-10T01:33:11.638Z,6.00
2017-08-10T01:35:39.180Z,6.23
2017-08-10T01:38:07.767Z,6.20
2017-08-10T01:40:35.325Z,6.10
2017-08-10T01:43:02.872Z,6.33
2017-08-10T01:45:30.434Z,6.67
2017-08-10T01:47:59.530Z,5.87
2017-08-10T01:50:27.843Z,7.20
2017-08-10T01:52:55.371Z,7.33
2017-08-10T01:55:22.928Z,7.87
2017-08-10T01:57:51.237Z,6.93
2017-08-10T02:00:18.773Z,8.40
2017-08-10T02:02:46.337Z,7.03
2017-08-10T02:05:13.878Z,7.70
2017-08-10T02:07:41.422Z,7.00
2017-08-10T02:10:08.948Z,8.30
2017-08-10T02:12:36.492Z,8.10
2017-08-10T02:15:04.037Z,7.80
2017-08-10T02:17:31.569Z,7.73
2017-08-10T02:19:59.162Z,7.30
2017-08-10T02:22:26.700Z,8.27
2017-08-10T02:24:54.250Z,8.00
2017-08-10T02:27:22.551Z,7.07
2017-08-10T02:29:50.114Z,7.63
2017-08-10T02:32:17.693Z,6.57
2017-08-10T02:34:45.261Z,7.70
2017-08-10T02:37:12.788Z,8.53
2017-08-10T02:39:40.756Z,8.20
2017-08-10T02:42:08.338Z,8.77
2017-08-10T02:44:36.348Z,7.87
2017-08-10T02:47:04.689Z,8.50
2017-08-10T02:49:32.342Z,7.63
2017-08-10T02:52:00.716Z,7.87
2017-08-10T02:54:28.352Z,7.70
2017-08-10T02:56:56.837Z,8.43
2017-08-10T02:59:24.398Z,8.03
2017-08-10T03:01:52.477Z,7.40
2017-08-10T03:04:20.265Z,6.60
2017-08-10T03:06:47.819Z,7.37
2017-08-10T03:09:15.374Z,5.37
2017-08-10T03:11:43.359Z,5.70
2017-08-10T03:14:10.904Z,4.93
2017-08-10T03:16:38.506Z,5.10
2017-08-10T03:19:06.053Z,4.33
2017-08-10T03:21:33.600Z,5.40
2017-08-10T03:24:01.149Z,5.33
2017-08-10T03:26:28.713Z,5.60
2017-08-10T03:28:56.666Z,5.40
2017-08-10T03:31:25.417Z,5.67
2017-08-10T03:33:52.982Z,6.60
2017-08-10T03:36:21.278Z,6.10
2017-08-10T03:38:50.966Z,6.20
2017-08-10T03:41:19.071Z,7.23
2017-08-10T03:43:47.894Z,7.23
2017-08-10T03:46:15.469Z,6.40
2017-08-10T03:48:42.985Z,7.77
2017-08-10T03:51:10.542Z,7.00
2017-08-10T03:53:39.597Z,5.73
2017-08-10T03:56:07.148Z,6.67
2017-08-10T03:58:34.815Z,6.20
2017-08-10T04:01:03.210Z,6.30
2017-08-10T04:03:31.551Z,6.17
2017-08-10T04:05:59.118Z,7.60
2017-08-10T04:08:26.656Z,7.70
2017-08-10T04:10:54.626Z,7.20
2017-08-10T04:13:22.193Z,8.00
2017-08-10T04:15:52.141Z,7.83
2017-08-10T04:18:23.024Z,7.70
2017-08-10T04:20:50.913Z,7.43
2017-08-10T04:26:13.615Z,7.33
2017-08-10T04:28:41.311Z,8.90
2017-08-10T04:31:08.938Z,8.50
2017-08-10T04:33:37.709Z,8.57
2017-08-10T04:36:07.468Z,9.53
2017-08-10T04:41:09.626Z,8.37
2017-08-10T04:43:41.724Z,8.60
2017-08-10T04:46:10.272Z,7.80
2017-08-10T04:48:39.088Z,8.53
2017-08-10T04:53:42.507Z,8.43
2017-08-10T04:56:12.116Z,8.50
2017-08-10T04:58:39.664Z,8.07
2017-08-10T05:01:07.662Z,8.23
2017-08-10T05:03:35.248Z,8.63
2017-08-10T05:06:02.799Z,8.63
2017-08-10T05:08:30.357Z,8.47
2017-08-10T05:10:57.879Z,9.13
2017-08-10T05:13:25.430Z,9.07
2017-08-10T05:15:52.955Z,8.20
2017-08-10T05:18:21.245Z,7.07
2017-08-10T05:20:48.825Z,8.70
2017-08-10T05:23:16.375Z,8.43
2017-08-10T05:25:43.943Z,7.10
2017-08-10T05:28:11.466Z,8.03
2017-08-10T05:30:39.791Z,8.20
2017-08-10T05:33:07.325Z,8.27
2017-08-10T05:35:34.861Z,8.00
2017-08-10T05:38:02.437Z,8.60
2017-08-10T05:40:29.990Z,8.40
2017-08-10T05:42:57.558Z,8.57
2017-08-10T05:45:25.112Z,7.50
2017-08-10T05:47:52.672Z,7.77
2017-08-10T05:50:20.237Z,7.33
2017-08-10T05:52:47.775Z,7.60
2017-08-10T05:55:15.325Z,7.30
2017-08-10T05:57:43.615Z,7.53
2017-08-10T06:00:11.202Z,6.20
2017-08-10T06:02:39.636Z,6.77
2017-08-10T06:05:07.216Z,6.80
2017-08-10T06:07:34.776Z,6.13
2017-08-10T06:10:02.316Z,5.13
2017-08-10T06:12:29.865Z,4.80
2017-08-10T06:14:57.413Z,4.80
2017-08-10T06:17:24.974Z,6.00
2017-08-10T06:19:52.546Z,4.50
2017-08-10T06:22:20.089Z,5.00
2017-08-10T06:24:47.659Z,5.20
2017-08-10T06:27:15.177Z,5.20
2017-08-10T06:29:42.726Z,5.10
2017-08-10T06:35:03.981Z,5.10
2017-08-10T06:37:32.454Z,4.57
2017-08-10T06:40:01.218Z,4.53
2017-08-10T06:42:28.854Z,4.30
2017-08-10T06:44:56.444Z,3.97
2017-08-10T06:47:24.008Z,5.17
2017-08-10T06:49:51.559Z,5.20
2017-08-10T06:52:19.113Z,6.20
2017-08-10T06:54:46.686Z,5.47
2017-08-10T06:57:14.266Z,5.47
2017-08-10T06:59:41.826Z,5.80
2017-08-10T07:02:09.400Z,6.33
2017-08-10T07:04:37.041Z,5.70
2017-08-10T07:07:04.774Z,6.03
2017-08-10T07:09:32.347Z,6.30
2017-08-10T07:11:59.991Z,6.40
2017-08-10T07:14:27.785Z,5.10
2017-08-10T07:16:55.327Z,5.10
2017-08-10T07:19:22.873Z,5.50
2017-08-10T07:21:50.438Z,5.77
2017-08-10T07:24:18.005Z,6.43
2017-08-10T07:26:45.604Z,6.73
2017-08-10T07:29:13.151Z,6.27
2017-08-10T07:31:40.721Z,5.17
2017-08-10T07:34:08.262Z,4.77
2017-08-10T07:36:35.833Z,4.87
2017-08-10T07:39:03.394Z,5.03
2017-08-10T07:41:30.948Z,5.80
2017-08-10T07:43:58.509Z,4.43
2017-08-10T07:46:26.071Z,4.27
2017-08-10T07:48:53.885Z,4.43
2017-08-10T07:51:21.433Z,4.13
2017-08-10T07:53:49.005Z,4.10
2017-08-10T07:56:16.567Z,3.40
2017-08-10T07:58:44.125Z,4.20
2017-08-10T08:01:11.686Z,3.60
2017-08-10T08:03:39.226Z,3.70
2017-08-10T08:06:06.768Z,3.53
2017-08-10T08:08:34.325Z,3.50
2017-08-10T08:11:01.870Z,3.40
2017-08-10T08:13:29.417Z,2.50
2017-08-10T08:15:56.974Z,2.00
2017-08-10T08:18:24.577Z,3.30
2017-08-10T08:20:52.115Z,2.30
2017-08-10T08:23:19.660Z,2.20
2017-08-10T08:25:47.213Z,2.80
2017-08-10T08:28:14.770Z,3.20
2017-08-10T08:30:42.578Z,2.10
2017-08-10T08:33:10.132Z,2.90
2017-08-10T08:35:37.706Z,2.30
2017-08-10T08:38:05.273Z,2.67
2017-08-10T08:40:32.836Z,2.33
2017-08-10T08:43:00.406Z,2.20
2017-08-10T08:45:27.957Z,2.83
2017-08-10T08:47:55.784Z,2.70
2017-08-10T08:50:23.321Z,2.93
2017-08-10T08:52:50.898Z,3.53
2017-08-10T08:55:18.455Z,2.43
2017-08-10T08:57:45.993Z,2.67
2017-08-10T09:00:13.564Z,2.53
2017-08-10T09:02:41.098Z,4.50
2017-08-10T09:05:08.669Z,3.37
2017-08-10T09:07:36.207Z,3.80
2017-08-10T09:10:03.754Z,2.93
2017-08-10T09:12:31.306Z,2.57
2017-08-10T09:14:58.837Z,2.47
2017-08-10T09:17:26.433Z,2.60
2017-08-10T09:19:54.013Z,2.27
2017-08-10T09:22:21.557Z,2.50
2017-08-10T09:24:49.165Z,2.03
2017-08-10T09:27:16.727Z,2.20
2017-08-10T09:29:44.564Z,2.60
2017-08-10T09:32:12.129Z,2.83
2017-08-10T09:34:39.705Z,2.50
2017-08-10T09:37:07.275Z,3.20
2017-08-10T09:39:34.829Z,2.30
2017-08-10T09:42:02.426Z,2.50
2017-08-10T09:44:29.985Z,2.40
2017-08-10T09:46:57.930Z,2.60
2017-08-10T09:49:25.504Z,2.13
2017-08-10T09:51:53.113Z,2.00
2017-08-10T09:54:20.817Z,2.30
2017-08-10T09:56:48.406Z,2.67
2017-08-10T09:59:15.954Z,2.17
2017-08-10T10:01:43.565Z,2.00
2017-08-10T10:04:11.440Z,3.10
2017-08-10T10:06:39.045Z,2.37
2017-08-10T10:09:06.589Z,2.60
2017-08-10T10:11:34.230Z,2.47
2017-08-10T10:14:01.826Z,2.57
2017-08-10T10:16:29.699Z,2.83
2017-08-10T10:18:57.283Z,3.17
2017-08-10T10:21:24.865Z,2.93
2017-08-10T10:23:52.462Z,2.53
2017-08-10T10:26:20.028Z,3.10
2017-08-10T10:28:47.586Z,3.10
2017-08-10T10:31:15.149Z,3.20
2017-08-10T10:33:42.976Z,2.87
2017-08-10T10:36:10.517Z,3.20
2017-08-10T10:38:38.074Z,3.47
2017-08-10T10:41:05.651Z,2.87
2017-08-10T10:43:33.208Z,2.67
2017-08-10T10:46:00.785Z,2.70
2017-08-10T10:48:28.333Z,2.90
2017-08-10T10:50:56.184Z,4.17
2017-08-10T10:53:23.738Z,2.90
2017-08-10T10:55:51.286Z,3.00
2017-08-10T10:58:18.840Z,3.30
2017-08-10T11:00:46.401Z,3.10
2017-08-10T11:03:14.003Z,3.70
2017-08-10T11:05:41.563Z,2.73
2017-08-10T11:08:09.137Z,2.70
2017-08-10T11:10:36.687Z,3.13
2017-08-10T11:13:04.228Z,3.57
2017-08-10T11:15:31.794Z,3.27
2017-08-10T11:17:59.353Z,3.00
2017-08-10T11:20:26.949Z,2.70
2017-08-10T11:22:54.500Z,3.27
2017-08-10T11:25:22.067Z,2.30
2017-08-10T11:27:49.622Z,2.60
2017-08-10T11:30:17.172Z,2.37
2017-08-10T11:32:44.742Z,2.83
2017-08-10T11:35:12.336Z,2.87
2017-08-10T11:37:39.897Z,3.40
2017-08-10T11:40:07.453Z,3.00
2017-08-10T11:42:35.285Z,2.70
2017-08-10T11:45:02.857Z,2.70
2017-08-10T11:47:30.407Z,2.77
2017-08-10T11:49:57.957Z,2.80
2017-08-10T11:52:25.509Z,2.80
2017-08-10T11:54:53.072Z,2.60
2017-08-10T11:57:20.632Z,2.80
2017-08-10T11:59:48.446Z,2.47
2017-08-10T12:02:16.000Z,2.97
2017-08-10T12:04:43.554Z,2.67
2017-08-10T12:07:11.121Z,2.40
2017-08-10T12:09:38.672Z,2.60
2017-08-10T12:12:06.245Z,2.70
2017-08-10T12:14:33.806Z,2.50
2017-08-10T12:17:01.385Z,2.50
2017-08-10T12:19:28.963Z,2.40
2017-08-10T12:21:56.545Z,3.30
2017-08-10T12:24:24.093Z,3.30
2017-08-10T12:26:51.666Z,2.17
2017-08-10T12:29:19.252Z,2.37
2017-08-10T12:31:46.813Z,2.30
2017-08-10T12:34:14.395Z,3.53
2017-08-10T12:36:42.043Z,2.60
2017-08-10T12:39:09.588Z,2.57
2017-08-10T12:41:37.167Z,1.80
2017-08-10T12:44:04.728Z,1.80
2017-08-10T12:46:32.558Z,2.17
2017-08-10T12:49:00.095Z,2.40
2017-08-10T12:51:27.660Z,2.57
2017-08-10T12:53:55.243Z,2.17
2017-08-10T12:56:22.813Z,2.30
2017-08-10T12:58:50.395Z,2.00
2017-08-10T13:01:17.930Z,2.90
2017-08-10T13:03:45.554Z,2.33
2017-08-10T13:06:13.198Z,2.40
2017-08-10T13:08:40.788Z,2.60
2017-08-10T13:11:08.395Z,2.83
2017-08-10T13:13:35.966Z,2.30
2017-08-10T13:16:03.530Z,2.17
2017-08-10T13:18:31.081Z,2.20
2017-08-10T13:20:58.671Z,1.97
2017-08-10T13:23:26.266Z,1.83
2017-08-10T13:25:53.827Z,2.07
2017-08-10T13:28:21.377Z,1.90
2017-08-10T13:30:48.919Z,1.93
2017-08-10T13:33:16.466Z,2.13
2017-08-10T13:35:44.005Z,2.13
2017-08-10T13:38:11.587Z,2.00
2017-08-10T13:40:39.145Z,2.20
2017-08-10T13:43:06.712Z,2.20
2017-08-10T13:45:34.290Z,2.50
2017-08-10T13:48:01.836Z,3.17
2017-08-10T13:50:29.375Z,2.33
2017-08-10T13:52:56.916Z,2.37
2017-08-10T13:55:24.463Z,2.30
2017-08-10T13:57:52.005Z,2.00
2017-08-10T14:00:19.566Z,2.70
2017-08-10T14:02:47.142Z,2.80
2017-08-10T14:05:14.696Z,3.03
2017-08-10T14:07:42.554Z,2.43
2017-08-10T14:10:10.129Z,2.63
2017-08-10T14:12:37.701Z,37.10
2017-08-10T14:15:05.300Z,27.33
2017-08-10T14:17:32.879Z,20.20
2017-08-10T14:20:00.452Z,4.10
2017-08-10T14:22:28.013Z,4.70
2017-08-10T14:24:55.849Z,3.07
2017-08-10T14:27:23.416Z,2.60
2017-08-10T14:29:50.980Z,2.73
2017-08-10T14:32:18.564Z,2.60
2017-08-10T14:34:46.120Z,2.70
2017-08-10T14:37:13.675Z,2.23
2017-08-10T14:39:41.213Z,2.27
2017-08-10T14:42:09.073Z,3.00
2017-08-10T14:44:36.637Z,2.83
2017-08-10T14:47:04.210Z,2.67
2017-08-10T14:49:31.786Z,2.70
2017-08-10T14:51:59.338Z,2.70
2017-08-10T14:54:26.921Z,3.03
2017-08-10T14:56:54.479Z,2.80
2017-08-10T14:59:22.045Z,3.03
2017-08-10T15:01:49.619Z,2.93
2017-08-10T15:04:17.752Z,3.47
2017-08-10T15:06:45.335Z,4.60
2017-08-10T15:09:12.966Z,6.07
2017-08-10T15:11:40.516Z,11.00
2017-08-10T15:14:08.057Z,5.50
2017-08-10T15:16:35.628Z,3.33
2017-08-10T15:19:03.243Z,4.00
2017-08-10T15:21:30.797Z,3.10
2017-08-10T15:23:58.378Z,2.80
2017-08-10T15:26:25.972Z,3.20
2017-08-10T15:28:53.549Z,3.47
2017-08-10T15:31:21.109Z,2.83
2017-08-10T15:33:48.664Z,3.53
2017-08-10T15:36:16.206Z,3.60
2017-08-10T15:38:43.778Z,3.37
2017-08-10T15:41:11.602Z,3.97
2017-08-10T15:43:39.156Z,4.80
2017-08-10T15:46:06.703Z,4.60
2017-08-10T15:48:34.286Z,4.10
2017-08-10T15:51:01.827Z,5.50
2017-08-10T15:53:29.394Z,5.43
2017-08-10T15:55:56.946Z,5.13
2017-08-10T15:58:24.560Z,21.50
2017-08-10T16:00:52.169Z,11.80
2017-08-10T16:03:19.720Z,8.63
2017-08-10T16:05:47.309Z,6.73
2017-08-10T16:08:14.870Z,6.80
2017-08-10T16:10:42.706Z,3.37
2017-08-10T16:13:10.247Z,2.90
2017-08-10T16:15:37.785Z,3.80
2017-08-10T16:18:05.416Z,3.30
2017-08-10T16:20:32.986Z,3.57
2017-08-10T16:23:00.618Z,5.10
2017-08-10T16:25:28.286Z,4.37
2017-08-10T16:27:56.064Z,5.07
2017-08-10T16:30:23.622Z,5.43
2017-08-10T16:32:51.188Z,5.10
2017-08-10T16:35:18.743Z,5.00
2017-08-10T16:37:46.300Z,2.67
2017-08-10T16:40:13.855Z,3.60
2017-08-10T16:42:41.602Z,5.00
2017-08-10T16:45:09.192Z,4.67
2017-08-10T16:47:36.737Z,3.90
2017-08-10T16:50:04.286Z,4.90
2017-08-10T16:52:31.868Z,3.90
2017-08-10T16:54:59.397Z,3.70
2017-08-10T16:57:26.973Z,3.93
2017-08-10T16:59:54.534Z,3.90
2017-08-10T17:02:22.101Z,4.20
2017-08-10T17:04:49.667Z,3.47
2017-08-10T17:07:17.257Z,3.00
2017-08-10T17:09:44.833Z,3.60
2017-08-10T17:12:12.397Z,3.00
2017-08-10T17:14:40.774Z,2.70
2017-08-10T17:17:08.328Z,3.50
2017-08-10T17:19:35.878Z,3.40
2017-08-10T17:22:03.466Z,3.20
2017-08-10T17:24:31.039Z,3.40
2017-08-10T17:26:58.605Z,3.13
2017-08-10T17:29:26.159Z,3.00
2017-08-10T17:31:53.749Z,3.33
2017-08-10T17:34:21.326Z,3.37
2017-08-10T17:36:48.876Z,3.53
2017-08-10T17:39:16.494Z,3.40
2017-08-10T17:41:44.077Z,3.70
2017-08-10T17:44:11.667Z,3.70
2017-08-10T17:46:39.237Z,3.47
2017-08-10T17:49:06.964Z,3.50
2017-08-10T17:51:34.531Z,3.30
2017-08-10T17:54:02.095Z,3.50
2017-08-10T17:56:29.754Z,3.20
2017-08-10T17:58:57.398Z,3.93
2017-08-10T18:01:25.275Z,4.10
2017-08-10T18:03:52.989Z,4.30
2017-08-10T18:06:20.524Z,5.17
2017-08-10T18:08:48.098Z,5.10
2017-08-10T18:11:15.703Z,4.80
2017-08-10T18:13:43.581Z,5.63
2017-08-10T18:16:11.148Z,5.13
2017-08-10T18:18:38.714Z,5.30
2017-08-10T18:21:06.304Z,5.60
2017-08-10T18:23:33.864Z,5.53
2017-08-10T18:26:01.693Z,5.53
2017-08-10T18:28:29.344Z,6.33
2017-08-10T18:30:56.946Z,6.13
2017-08-10T18:33:24.503Z,5.13
2017-08-10T18:35:52.059Z,4.60
2017-08-10T18:38:19.621Z,4.83
2017-08-10T18:40:47.169Z,4.43
2017-08-10T18:43:14.799Z,4.97
2017-08-10T18:45:42.360Z,5.23
2017-08-10T18:48:09.975Z,4.67
2017-08-10T18:50:37.716Z,5.00
2017-08-10T18:53:05.290Z,5.90
2017-08-10T18:55:32.868Z,6.00
2017-08-10T18:58:00.415Z,4.70
2017-08-10T19:00:28.043Z,4.80
2017-08-10T19:02:55.671Z,5.67
2017-08-10T19:05:23.641Z,5.67
2017-08-10T19:07:51.330Z,4.70
2017-08-10T19:10:18.894Z,5.50
2017-08-10T19:12:46.472Z,5.00
2017-08-10T19:15:14.037Z,5.67
2017-08-10T19:17:41.635Z,5.10
2017-08-10T19:20:09.174Z,6.17
2017-08-10T19:22:36.757Z,6.10
2017-08-10T19:25:04.426Z,4.40
2017-08-10T19:27:31.997Z,5.07
2017-08-10T19:29:59.570Z,5.20
2017-08-10T19:32:27.185Z,5.00
2017-08-10T19:34:54.765Z,5.70
2017-08-10T19:37:22.296Z,5.73
2017-08-10T19:39:50.160Z,6.00
2017-08-10T19:42:17.725Z,5.10
2017-08-10T19:44:45.266Z,6.13
2017-08-10T19:47:12.817Z,5.90
2017-08-10T19:49:40.557Z,6.33
2017-08-10T19:52:08.194Z,5.70
2017-08-10T19:54:35.741Z,5.60
2017-08-10T19:57:03.299Z,5.33
2017-08-10T19:59:30.837Z,5.87
2017-08-10T20:01:58.417Z,5.67
2017-08-10T20:04:26.006Z,5.70
2017-08-10T20:06:53.551Z,6.00
2017-08-10T20:09:21.140Z,6.00
2017-08-10T20:11:48.705Z,6.87
2017-08-10T20:14:16.277Z,6.37
2017-08-10T20:16:43.844Z,5.80
2017-08-10T20:19:11.472Z,6.60
2017-08-10T20:21:39.028Z,6.77
2017-08-10T20:24:06.615Z,6.77
2017-08-10T20:26:34.438Z,7.90
2017-08-10T20:29:01.992Z,7.80
2017-08-10T20:31:29.591Z,9.60
2017-08-10T20:33:57.200Z,9.00
2017-08-10T20:36:24.761Z,9.43
2017-08-10T20:38:53.208Z,9.10
2017-08-10T20:41:20.764Z,8.17
2017-08-10T20:43:48.597Z,9.10
2017-08-10T20:46:16.145Z,8.93
2017-08-10T20:48:43.742Z,8.50
2017-08-10T20:51:11.337Z,8.97
2017-08-10T20:53:38.890Z,9.00
2017-08-10T20:56:06.447Z,9.07
2017-08-10T20:58:33.993Z,8.83
2017-08-10T21:01:01.586Z,9.30
2017-08-10T21:03:29.149Z,9.40
2017-08-10T21:05:56.709Z,8.57
2017-08-10T21:08:24.302Z,8.93
2017-08-10T21:10:51.885Z,10.00
2017-08-10T21:13:19.465Z,9.10
2017-08-10T21:15:47.028Z,9.60
2017-08-10T21:18:14.608Z,9.17
2017-08-10T21:20:42.222Z,9.80
2017-08-10T21:23:09.767Z,9.43
2017-08-10T21:25:37.337Z,10.77
2017-08-10T21:28:04.898Z,11.73
2017-08-10T21:30:32.462Z,10.53
2017-08-10T21:33:00.026Z,10.60
2017-08-10T21:35:27.880Z,11.43
2017-08-10T21:37:55.460Z,9.93
2017-08-10T21:40:23.039Z,11.10
2017-08-10T21:42:50.613Z,10.80
2017-08-10T21:45:18.175Z,10.40
2017-08-10T21:47:46.067Z,10.60
2017-08-10T21:50:13.682Z,12.13
2017-08-10T21:52:41.250Z,11.87
2017-08-10T21:55:08.841Z,11.60
2017-08-10T21:57:36.444Z,11.60
2017-08-10T22:00:04.836Z,11.33
2017-08-10T22:02:32.413Z,12.00
2017-08-10T22:04:59.976Z,11.93
2017-08-10T22:07:27.589Z,11.43
2017-08-10T22:09:55.136Z,13.27
2017-08-10T22:12:22.735Z,12.63
2017-08-10T22:14:50.304Z,12.47
2017-08-10T22:17:17.856Z,12.87
2017-08-10T22:19:45.410Z,14.40
2017-08-10T22:22:12.983Z,13.50
2017-08-10T22:24:40.547Z,14.13
2017-08-10T22:27:08.108Z,13.40
2017-08-10T22:29:35.678Z,14.30
2017-08-10T22:32:03.238Z,15.00
2017-08-10T22:34:30.796Z,14.03
2017-08-10T22:36:58.379Z,14.53
2017-08-10T22:39:25.926Z,14.70
2017-08-10T22:41:53.484Z,14.80
2017-08-10T22:44:21.070Z,14.60
2017-08-10T22:46:48.633Z,13.23
2017-08-10T22:49:16.236Z,15.67
2017-08-10T22:51:43.805Z,15.53
2017-08-10T22:54:11.644Z,16.50
2017-08-10T22:56:39.206Z,14.83
2017-08-10T22:59:06.749Z,15.47
2017-08-10T23:01:34.326Z,14.40
2017-08-10T23:04:01.887Z,13.63
2017-08-10T23:06:29.714Z,15.03
2017-08-10T23:08:57.265Z,17.07
2017-08-10T23:11:24.819Z,17.33
2017-08-10T23:13:52.413Z,19.40
2017-08-10T23:16:19.949Z,17.97
2017-08-10T23:18:47.523Z,17.40
2017-08-10T23:21:15.099Z,18.33
2017-08-10T23:23:43.971Z,17.83
2017-08-10T23:26:11.542Z,17.40
2017-08-10T23:28:39.294Z,16.73
2017-08-10T23:31:07.248Z,19.00
2017-08-10T23:33:34.821Z,22.67
2017-08-10T23:36:02.756Z,18.27
2017-08-10T23:38:30.518Z,18.13
2017-08-10T23:40:59.538Z,17.97
2017-08-10T23:43:27.093Z,18.90
2017-08-10T23:45:55.559Z,19.10
2017-08-10T23:48:23.135Z,18.47
2017-08-10T23:50:50.689Z,18.03
2017-08-10T23:53:18.253Z,19.10
2017-08-10T23:55:45.817Z,16.90
2017-08-10T23:58:13.374Z,17.30
